Etusivu
METAR-TAF:

METAR-TAF

Lentoasemat :

Acapulco, Meksiko

Leveyspiiri: 16-46N, Pituuspiiri: 099-45W, korkeus merenpinnasta: 5 m

Tämänhetkinen sää

Tämä raportti tehtiin 38 minuuttia sitten, kello 22.50 UTC
Tuuli 7 kn lännestä
Lämpötila 29°C
Kosteus 70%
Ilmanpaine 1009 hPa
Näkyvyys: 11.3 km
selkeää

METAR: MMAA 212250Z 28007KT 7SM SKC 29/23 A2980 RMK HZY ISOL CI

Aika: 17:28 (23:28 UTC)

Sääennuste

Tämä raportti tehtiin 7 tuntia ja 8 minuuttia sitten, kello 16.20 UTC
Ennuste voimassa 21. päivästä klo 18 UTC - 22. päivään klo 24 UTC
Tuuli 8 kn lännestä/lounaasta
Näkyvyys: 10 km
selkeää
From 22. päivästä klo 0400 UTC
Tuuli 5 kn idästä/koillisesta
Näkyvyys: 10 km
Hajanaisia pilviä 1500 ft:n korkeudessa
From 22. päivästä klo 1700 UTC
Tuuli 8 kn lännestä/lounaasta
Näkyvyys: 10 km
selkeää

TAF: MMAA 211620Z 2118/2224 25008KT P6SM SKC TX30/2119Z TN24/2213Z FM220400 06005KT P6SM SCT015 FM221700 25008KT P6SM SKC

Säähavainnot ja -ennusteet yli 4000 lentoasemalta (METAR- ja TAF-raportit).

Käytössä olevat sääasemat on merkitty karttaan keltaisilla ja punaisilla pisteillä.

Aseta hiiri pisteen päälle nähdäksesi sääaseman nimen.

Klikkaa sitten nähdäksesi säähavainnot ja -ennusteet.

Kartan vaihtaminen: klikkaa mustalla rastilla varustettuja vihreitä pisteitä, niin voit zoomata sisään; viivalla varustettua vihreää pistettä, niin voit zoomata ulos tai vihreitä nuolia, niin pääset viereisille kartoille.


METAR-TAF: